Grindstone City, Michigan
Current Conditions -  °F | °C
As of 4:18 AM on Thursday 23 Oct 2014 (Local Time) from KBAX Reporting Station
Scattered Clouds Scattered Clouds  
Wind Chill: 26°   Ceiling: Unl
Heat Index: 26°   Visibility: 7mi
Dew Point: 26°   Wind: 0mph
Humidity: 100%   Direction: NA
Pressure: 30.27"   Gusts: NA
Location:  44.0077°N, 82.9857°W
Report Text: KBAX 230818Z AUTO 00000KT 7SM SCT002 M03/M03 A3027 RMK AO2 T10311031
Loading
Personal Weather Stations






























Interactive Weather Map
Tropical Storm Tracking
New forecast layout! Learn more

10-Day Weather Forecast

Advertisements
Track Severe Weather on mobile